createdAt,value
2022-12-26T00:00:37.150Z,97023.00
2022-12-26T00:03:04.143Z,97015.00
2022-12-26T00:05:36.992Z,97016.00
2022-12-26T00:08:04.334Z,97019.00
2022-12-26T00:10:31.095Z,97025.00
2022-12-26T00:13:40.393Z,97018.00
2022-12-26T00:15:44.821Z,97006.00
2022-12-26T00:18:11.585Z,97010.00
2022-12-26T00:20:38.337Z,97021.00
2022-12-26T00:23:05.102Z,97016.00
2022-12-26T00:25:34.505Z,97009.00
2022-12-26T00:28:01.657Z,97004.00
2022-12-26T00:30:28.495Z,97012.00
2022-12-26T00:32:55.762Z,96992.00
2022-12-26T00:35:22.622Z,96999.00
2022-12-26T00:37:49.431Z,97010.00
2022-12-26T00:40:16.265Z,97006.00
2022-12-26T00:42:43.000Z,97013.00
2022-12-26T00:45:10.356Z,97016.00
2022-12-26T00:47:37.108Z,97018.00
2022-12-26T00:50:13.323Z,97009.00
2022-12-26T00:52:42.488Z,97013.00
2022-12-26T00:55:10.592Z,97015.00
2022-12-26T00:57:37.401Z,97019.00
2022-12-26T01:00:05.392Z,97010.00
2022-12-26T01:02:37.838Z,97005.00
2022-12-26T01:05:07.987Z,97000.00
2022-12-26T01:08:21.271Z,97002.00
2022-12-26T01:10:23.662Z,97014.00
2022-12-26T01:12:51.222Z,97015.00
2022-12-26T01:15:18.537Z,97011.00
2022-12-26T01:17:46.239Z,97019.00
2022-12-26T01:20:13.115Z,97014.00
2022-12-26T01:22:39.947Z,97035.00
2022-12-26T01:25:07.680Z,97032.00
2022-12-26T01:27:34.582Z,97033.00
2022-12-26T01:30:01.359Z,97034.00
2022-12-26T01:32:28.098Z,97028.00
2022-12-26T01:34:55.579Z,97026.00
2022-12-26T01:37:26.073Z,97019.00
2022-12-26T01:39:53.005Z,97026.00
2022-12-26T01:42:23.706Z,97035.00
2022-12-26T01:45:28.349Z,97038.00
2022-12-26T01:48:25.971Z,97038.00
2022-12-26T01:51:04.446Z,97038.00
2022-12-26T01:53:32.074Z,97038.00
2022-12-26T01:56:08.899Z,97057.00
2022-12-26T01:58:46.500Z,97033.00
2022-12-26T02:01:13.920Z,97035.00
2022-12-26T02:04:03.282Z,97037.00
2022-12-26T02:06:30.669Z,97051.00
2022-12-26T02:08:57.549Z,97049.00
2022-12-26T02:12:34.933Z,97051.00
2022-12-26T02:14:43.583Z,97057.00
2022-12-26T02:17:11.309Z,97061.00
2022-12-26T02:20:17.585Z,97067.00
2022-12-26T02:22:54.025Z,97066.00
2022-12-26T02:25:29.485Z,97058.00
2022-12-26T02:29:09.348Z,97051.00
2022-12-26T02:32:03.327Z,97062.00
2022-12-26T02:34:40.512Z,97070.00
2022-12-26T02:37:13.334Z,97071.00
2022-12-26T02:40:29.791Z,97069.00
2022-12-26T02:43:23.963Z,97060.00
2022-12-26T02:46:47.873Z,97050.00
2022-12-26T02:50:08.391Z,97052.00
2022-12-26T02:53:35.477Z,97035.00
2022-12-26T02:56:32.798Z,97037.00
2022-12-26T02:59:55.738Z,97041.00
2022-12-26T03:02:55.024Z,97038.00
2022-12-26T03:05:52.201Z,97032.00
2022-12-26T03:08:48.030Z,97030.00
2022-12-26T03:11:33.607Z,97017.00
2022-12-26T03:14:52.037Z,97030.00
2022-12-26T03:17:52.762Z,97022.00
2022-12-26T03:20:30.008Z,97022.00
2022-12-26T03:23:18.110Z,97020.00
2022-12-26T03:26:14.391Z,97011.00
2022-12-26T03:28:42.541Z,97022.00
2022-12-26T03:31:12.966Z,97021.00
2022-12-26T03:34:04.837Z,97018.00
2022-12-26T03:36:55.870Z,97037.00
2022-12-26T03:40:09.169Z,97035.00
2022-12-26T03:43:29.755Z,97018.00
2022-12-26T03:46:38.546Z,97027.00
2022-12-26T03:49:35.166Z,97030.00
2022-12-26T03:52:57.825Z,97039.00
2022-12-26T03:55:49.599Z,97042.00
2022-12-26T03:58:44.737Z,97037.00
2022-12-26T04:01:38.412Z,97026.00
2022-12-26T04:04:28.791Z,97031.00
2022-12-26T04:07:36.403Z,97044.00
2022-12-26T04:10:52.711Z,97027.00
2022-12-26T04:14:24.349Z,97025.00
2022-12-26T04:17:22.225Z,97027.00
2022-12-26T04:20:10.809Z,97011.00
2022-12-26T04:23:21.851Z,97016.00
2022-12-26T04:26:35.813Z,97017.00
2022-12-26T04:29:22.509Z,97027.00
2022-12-26T04:32:31.839Z,97014.00
2022-12-26T04:35:44.268Z,97014.00
2022-12-26T04:38:35.640Z,97013.00
2022-12-26T04:41:21.342Z,97027.00
2022-12-26T04:44:12.149Z,97014.00
2022-12-26T04:46:47.237Z,97011.00
2022-12-26T04:49:36.579Z,97015.00
2022-12-26T04:52:07.413Z,97015.00
2022-12-26T04:54:34.520Z,97016.00
2022-12-26T04:57:01.292Z,97020.00
2022-12-26T04:59:28.669Z,97022.00
2022-12-26T05:02:13.846Z,97032.00
2022-12-26T05:04:59.519Z,97021.00
2022-12-26T05:07:48.004Z,97020.00
2022-12-26T05:10:25.619Z,97013.00
2022-12-26T05:12:53.326Z,97019.00
2022-12-26T05:15:20.367Z,97019.00
2022-12-26T05:18:06.402Z,97015.00
2022-12-26T05:20:51.746Z,97032.00
2022-12-26T05:23:41.503Z,97032.00
2022-12-26T05:26:39.629Z,97042.00
2022-12-26T05:29:06.747Z,97021.00
2022-12-26T05:31:36.430Z,97035.00
2022-12-26T05:34:05.860Z,97026.00
2022-12-26T05:36:44.766Z,97026.00
2022-12-26T05:39:11.671Z,97021.00
2022-12-26T05:41:40.322Z,97031.00
2022-12-26T05:44:08.355Z,97029.00
2022-12-26T05:46:35.905Z,97038.00
2022-12-26T05:49:04.138Z,97036.00
2022-12-26T05:51:31.014Z,97036.00
2022-12-26T05:53:57.815Z,97021.00
2022-12-26T05:56:24.630Z,97023.00
2022-12-26T05:58:56.810Z,97010.00
2022-12-26T06:01:25.203Z,97010.00
2022-12-26T06:03:55.353Z,97021.00
2022-12-26T06:06:23.797Z,97029.00
2022-12-26T06:08:53.407Z,97015.00
2022-12-26T06:11:20.754Z,97021.00
2022-12-26T06:13:47.511Z,97013.00
2022-12-26T06:16:18.016Z,97007.00
2022-12-26T06:18:45.186Z,96999.00
2022-12-26T06:21:16.343Z,96998.00
2022-12-26T06:23:43.137Z,96993.00
2022-12-26T06:26:12.420Z,97003.00
2022-12-26T06:28:41.411Z,97001.00
2022-12-26T06:31:14.448Z,96999.00
2022-12-26T06:33:41.749Z,96990.00
2022-12-26T06:36:12.982Z,96981.00
2022-12-26T06:38:39.767Z,96988.00
2022-12-26T06:41:08.794Z,96998.00
2022-12-26T06:43:36.139Z,96991.00
2022-12-26T06:46:06.141Z,96986.00
2022-12-26T06:48:39.146Z,96985.00
2022-12-26T06:51:10.193Z,96985.00
2022-12-26T06:53:37.024Z,96973.00
2022-12-26T06:56:26.136Z,96975.00
2022-12-26T06:58:57.449Z,96978.00
2022-12-26T07:01:25.383Z,96980.00
2022-12-26T07:03:54.278Z,96985.00
2022-12-26T07:06:29.819Z,97000.00
2022-12-26T07:08:59.901Z,97013.00
2022-12-26T07:11:31.784Z,96998.00
2022-12-26T07:13:59.347Z,97004.00
2022-12-26T07:16:26.999Z,97004.00
2022-12-26T07:18:58.260Z,97006.00
2022-12-26T07:21:25.720Z,97003.00
2022-12-26T07:23:53.240Z,97001.00
2022-12-26T07:26:20.563Z,97009.00
2022-12-26T07:28:47.408Z,97011.00
2022-12-26T07:31:19.940Z,97015.00
2022-12-26T07:33:52.363Z,97010.00
2022-12-26T07:36:20.081Z,97004.00
2022-12-26T07:38:47.106Z,97011.00
2022-12-26T07:41:32.617Z,97015.00
2022-12-26T07:43:59.377Z,97026.00
2022-12-26T07:46:26.155Z,97019.00
2022-12-26T07:48:52.908Z,97035.00
2022-12-26T07:51:19.662Z,97042.00
2022-12-26T07:53:46.429Z,97051.00
2022-12-26T07:56:13.262Z,97052.00
2022-12-26T07:58:40.114Z,97066.00
2022-12-26T08:01:07.039Z,97070.00
2022-12-26T08:03:35.039Z,97073.00
2022-12-26T08:06:02.212Z,97081.00
2022-12-26T08:08:28.994Z,97095.00
2022-12-26T08:11:03.912Z,97087.00
2022-12-26T08:13:30.826Z,97090.00
2022-12-26T08:15:58.371Z,97103.00
2022-12-26T08:18:26.035Z,97108.00
2022-12-26T08:20:53.070Z,97121.00
2022-12-26T08:23:19.914Z,97125.00
2022-12-26T08:25:46.733Z,97129.00
2022-12-26T08:28:14.169Z,97130.00
2022-12-26T08:30:41.431Z,97123.00
2022-12-26T08:33:10.063Z,97136.00
2022-12-26T08:35:38.579Z,97144.00
2022-12-26T08:38:05.530Z,97150.00
2022-12-26T08:40:43.070Z,97151.00
2022-12-26T08:43:34.566Z,97164.00
2022-12-26T08:46:02.337Z,97168.00
2022-12-26T08:48:30.118Z,97174.00
2022-12-26T08:51:03.485Z,97180.00
2022-12-26T08:53:32.827Z,97179.00
2022-12-26T08:56:00.092Z,97178.00
2022-12-26T08:58:28.387Z,97177.00
2022-12-26T09:00:55.733Z,97180.00
2022-12-26T09:03:23.293Z,97190.00
2022-12-26T09:05:50.212Z,97192.00
2022-12-26T09:08:16.959Z,97197.00
2022-12-26T09:10:43.687Z,97198.00
2022-12-26T09:13:10.473Z,97190.00
2022-12-26T09:15:38.177Z,97191.00
2022-12-26T09:18:04.927Z,97200.00
2022-12-26T09:20:33.419Z,97200.00
2022-12-26T09:23:00.171Z,97206.00
2022-12-26T09:25:27.010Z,97215.00
2022-12-26T09:27:58.877Z,97225.00
2022-12-26T09:30:26.417Z,97227.00
2022-12-26T09:32:53.920Z,97237.00
2022-12-26T09:35:20.695Z,97241.00
2022-12-26T09:37:47.547Z,97253.00
2022-12-26T09:40:29.114Z,97259.00
2022-12-26T09:43:23.716Z,97268.00
2022-12-26T09:46:12.699Z,97260.00
2022-12-26T09:48:57.937Z,97268.00
2022-12-26T09:51:26.974Z,97281.00
2022-12-26T09:53:55.293Z,97290.00
2022-12-26T09:59:20.121Z,97319.00
2022-12-26T10:01:49.532Z,97335.00
2022-12-26T10:04:23.612Z,97344.00
2022-12-26T10:07:19.937Z,97336.00
2022-12-26T10:09:49.714Z,97324.00
2022-12-26T10:12:50.417Z,97321.00
2022-12-26T10:15:25.964Z,97329.00
2022-12-26T10:18:15.574Z,97315.00
2022-12-26T10:21:28.914Z,97311.00
2022-12-26T10:24:08.441Z,97320.00
2022-12-26T10:26:41.340Z,97310.00
2022-12-26T10:29:08.011Z,97296.00
2022-12-26T10:31:57.453Z,97295.00
2022-12-26T10:34:40.316Z,97299.00
2022-12-26T10:37:26.166Z,97282.00
2022-12-26T10:40:01.170Z,97289.00
2022-12-26T10:42:36.823Z,97283.00
2022-12-26T10:45:15.864Z,97289.00
2022-12-26T10:47:47.293Z,97288.00
2022-12-26T10:50:26.944Z,97304.00
2022-12-26T10:52:55.197Z,97300.00
2022-12-26T10:55:31.394Z,97303.00
2022-12-26T10:58:24.125Z,97288.00
2022-12-26T11:00:53.347Z,97284.00
2022-12-26T11:03:25.135Z,97282.00
2022-12-26T11:06:13.174Z,97282.00
2022-12-26T11:08:58.107Z,97299.00
2022-12-26T11:11:56.586Z,97291.00
2022-12-26T11:14:44.985Z,97303.00
2022-12-26T11:17:25.894Z,97295.00
2022-12-26T11:20:24.079Z,97278.00
2022-12-26T11:22:51.813Z,97274.00
2022-12-26T11:25:27.721Z,97286.00
2022-12-26T11:28:39.456Z,97297.00
2022-12-26T11:31:07.678Z,97285.00
2022-12-26T11:33:43.933Z,97264.00
2022-12-26T11:36:16.780Z,97269.00
2022-12-26T11:38:58.583Z,97271.00
2022-12-26T11:41:39.654Z,97277.00
2022-12-26T11:44:15.928Z,97281.00
2022-12-26T11:46:50.991Z,97282.00
2022-12-26T11:49:32.541Z,97291.00
2022-12-26T11:52:01.751Z,97290.00
2022-12-26T11:54:39.404Z,97297.00
2022-12-26T11:57:22.135Z,97290.00
2022-12-26T12:00:03.640Z,97293.00
2022-12-26T12:02:41.073Z,97299.00
2022-12-26T12:05:53.272Z,97288.00
2022-12-26T12:09:05.537Z,97287.00
2022-12-26T12:12:05.537Z,97291.00
2022-12-26T12:15:06.041Z,97288.00
2022-12-26T12:21:24.372Z,97289.00
2022-12-26T12:24:32.727Z,97296.00
2022-12-26T12:27:40.559Z,97292.00
2022-12-26T12:30:55.992Z,97286.00
2022-12-26T12:33:33.546Z,97272.00
2022-12-26T12:36:29.412Z,97261.00
2022-12-26T12:39:16.319Z,97218.00
2022-12-26T12:42:01.425Z,97240.00
2022-12-26T12:45:08.683Z,97245.00
2022-12-26T12:47:55.722Z,97282.00
2022-12-26T12:50:56.772Z,97283.00
2022-12-26T12:53:57.245Z,97289.00
2022-12-26T12:56:38.362Z,97267.00
2022-12-26T12:59:24.559Z,97269.00
2022-12-26T13:02:20.455Z,97267.00
2022-12-26T13:05:26.837Z,97261.00
2022-12-26T13:08:19.670Z,97263.00
2022-12-26T13:11:23.375Z,97258.00
2022-12-26T13:14:25.006Z,97257.00
2022-12-26T13:17:19.565Z,97266.00
2022-12-26T13:20:01.728Z,97270.00
2022-12-26T13:22:57.514Z,97277.00
2022-12-26T13:25:28.761Z,97242.00
2022-12-26T13:28:09.153Z,97242.00
2022-12-26T13:30:37.694Z,97256.00
2022-12-26T13:33:06.156Z,97242.00
2022-12-26T13:36:00.073Z,97268.00
2022-12-26T13:38:55.732Z,97256.00
2022-12-26T13:41:43.395Z,97237.00
2022-12-26T13:44:18.850Z,97240.00
2022-12-26T13:46:48.533Z,97254.00
2022-12-26T13:49:39.875Z,97243.00
2022-12-26T13:52:14.563Z,97259.00
2022-12-26T13:54:47.393Z,97256.00
2022-12-26T13:57:40.141Z,97259.00
2022-12-26T14:00:23.748Z,97253.00
2022-12-26T14:03:37.367Z,97246.00
2022-12-26T14:06:50.738Z,97252.00
2022-12-26T14:09:48.279Z,97252.00
2022-12-26T14:12:58.357Z,97243.00
2022-12-26T14:16:18.867Z,97230.00
2022-12-26T14:19:11.570Z,97232.00
2022-12-26T14:21:53.648Z,97227.00
2022-12-26T14:24:48.066Z,97222.00
2022-12-26T14:27:33.920Z,97214.00
2022-12-26T14:30:22.770Z,97232.00
2022-12-26T14:33:17.160Z,97221.00
2022-12-26T14:36:17.856Z,97235.00
2022-12-26T14:39:26.690Z,97242.00
2022-12-26T14:42:27.136Z,97244.00
2022-12-26T14:45:03.010Z,97224.00
2022-12-26T14:47:45.757Z,97216.00
2022-12-26T14:50:44.839Z,97212.00
2022-12-26T14:53:29.419Z,97221.00
2022-12-26T14:56:24.834Z,97229.00
2022-12-26T14:58:53.635Z,97243.00
2022-12-26T15:01:23.397Z,97238.00
2022-12-26T15:04:09.029Z,97240.00
2022-12-26T15:06:50.643Z,97237.00
2022-12-26T15:10:02.233Z,97252.00
2022-12-26T15:13:12.099Z,97243.00
2022-12-26T15:16:17.207Z,97228.00
2022-12-26T15:19:33.263Z,97223.00
2022-12-26T15:22:22.066Z,97232.00
2022-12-26T15:25:29.852Z,97228.00
2022-12-26T15:28:46.993Z,97233.00
2022-12-26T15:31:27.585Z,97245.00
2022-12-26T15:34:18.357Z,97239.00
2022-12-26T15:37:34.599Z,97228.00
2022-12-26T15:40:29.985Z,97228.00
2022-12-26T15:43:29.212Z,97230.00
2022-12-26T15:46:06.258Z,97228.00
2022-12-26T15:49:01.881Z,97232.00
2022-12-26T15:51:59.581Z,97241.00
2022-12-26T15:54:55.680Z,97232.00
2022-12-26T15:58:01.832Z,97239.00
2022-12-26T16:00:52.535Z,97261.00
2022-12-26T16:03:48.952Z,97234.00
2022-12-26T16:06:30.557Z,97241.00
2022-12-26T16:09:35.143Z,97226.00
2022-12-26T16:12:02.295Z,97237.00
2022-12-26T16:14:37.820Z,97247.00
2022-12-26T16:17:13.662Z,97235.00
2022-12-26T16:19:43.084Z,97241.00
2022-12-26T16:22:43.980Z,97229.00
2022-12-26T16:25:31.246Z,97224.00
2022-12-26T16:28:00.149Z,97228.00
2022-12-26T16:30:36.682Z,97232.00
2022-12-26T16:33:04.441Z,97236.00
2022-12-26T16:35:40.643Z,97218.00
2022-12-26T16:38:14.418Z,97230.00
2022-12-26T16:40:50.503Z,97236.00
2022-12-26T16:43:36.716Z,97240.00
2022-12-26T16:46:06.886Z,97228.00
2022-12-26T16:48:35.938Z,97228.00
2022-12-26T16:51:07.454Z,97221.00
2022-12-26T16:53:37.109Z,97246.00
2022-12-26T16:56:32.591Z,97249.00
2022-12-26T16:59:18.125Z,97254.00
2022-12-26T17:01:59.800Z,97255.00
2022-12-26T17:04:30.737Z,97242.00
2022-12-26T17:07:07.767Z,97253.00
2022-12-26T17:09:46.325Z,97238.00
2022-12-26T17:12:23.178Z,97238.00
2022-12-26T17:14:51.666Z,97224.00
2022-12-26T17:17:24.564Z,97247.00
2022-12-26T17:19:58.204Z,97256.00
2022-12-26T17:22:31.749Z,97262.00
2022-12-26T17:25:31.218Z,97270.00
2022-12-26T17:28:14.990Z,97284.00
2022-12-26T17:30:48.543Z,97280.00
2022-12-26T17:33:24.365Z,97277.00
2022-12-26T17:36:52.254Z,97274.00
2022-12-26T17:38:49.747Z,97270.00
2022-12-26T17:41:17.664Z,97272.00
2022-12-26T17:43:46.460Z,97273.00
2022-12-26T17:46:17.143Z,97271.00
2022-12-26T17:48:45.194Z,97269.00
2022-12-26T17:51:17.598Z,97293.00
2022-12-26T17:53:50.704Z,97287.00
2022-12-26T17:56:22.669Z,97290.00
2022-12-26T17:58:50.390Z,97291.00
2022-12-26T18:01:21.335Z,97302.00
2022-12-26T18:03:50.179Z,97312.00
2022-12-26T18:06:17.810Z,97312.00
2022-12-26T18:08:44.916Z,97337.00
2022-12-26T18:11:13.880Z,97350.00
2022-12-26T18:13:40.937Z,97345.00
2022-12-26T18:16:14.251Z,97359.00
2022-12-26T18:18:44.888Z,97402.00
2022-12-26T18:21:15.398Z,97415.00
2022-12-26T18:23:42.958Z,97382.00
2022-12-26T18:26:29.620Z,97395.00
2022-12-26T18:28:56.682Z,97378.00
2022-12-26T18:31:25.048Z,97406.00
2022-12-26T18:33:51.901Z,97391.00
2022-12-26T18:36:20.083Z,97400.00
2022-12-26T18:38:46.811Z,97418.00
2022-12-26T18:41:16.445Z,97414.00
2022-12-26T18:43:43.196Z,97409.00
2022-12-26T18:46:21.517Z,97397.00
2022-12-26T18:48:49.136Z,97412.00
2022-12-26T18:51:16.032Z,97416.00
2022-12-26T18:53:42.878Z,97424.00
2022-12-26T18:56:18.737Z,97434.00
2022-12-26T18:58:55.779Z,97450.00
2022-12-26T19:01:24.167Z,97454.00
2022-12-26T19:03:51.101Z,97454.00
2022-12-26T19:06:28.637Z,97453.00
2022-12-26T19:08:55.937Z,97457.00
2022-12-26T19:11:22.769Z,97461.00
2022-12-26T19:13:50.095Z,97463.00
2022-12-26T19:16:16.992Z,97451.00
2022-12-26T19:18:43.923Z,97461.00
2022-12-26T19:21:13.490Z,97460.00
2022-12-26T19:23:41.029Z,97457.00
2022-12-26T19:26:13.906Z,97460.00
2022-12-26T19:28:40.697Z,97474.00
2022-12-26T19:31:13.773Z,97475.00
2022-12-26T19:33:41.042Z,97482.00
2022-12-26T19:36:09.501Z,97475.00
2022-12-26T19:38:37.072Z,97476.00
2022-12-26T19:41:12.099Z,97495.00
2022-12-26T19:43:39.237Z,97500.00
2022-12-26T19:46:11.153Z,97516.00
2022-12-26T19:48:39.089Z,97526.00
2022-12-26T19:51:10.130Z,97530.00
2022-12-26T19:53:38.419Z,97539.00
2022-12-26T19:56:18.090Z,97538.00
2022-12-26T19:58:45.844Z,97546.00
2022-12-26T20:01:19.684Z,97543.00
2022-12-26T20:03:46.686Z,97545.00
2022-12-26T20:06:19.982Z,97549.00
2022-12-26T20:08:49.391Z,97555.00
2022-12-26T20:11:23.552Z,97554.00
2022-12-26T20:13:51.366Z,97552.00
2022-12-26T20:16:54.728Z,97560.00
2022-12-26T20:19:08.562Z,97566.00
2022-12-26T20:21:36.052Z,97569.00
2022-12-26T20:24:02.991Z,97576.00
2022-12-26T20:26:29.901Z,97593.00
2022-12-26T20:29:02.919Z,97601.00
2022-12-26T20:31:32.671Z,97609.00
2022-12-26T20:34:00.199Z,97617.00
2022-12-26T20:36:31.098Z,97630.00
2022-12-26T20:39:01.131Z,97623.00
2022-12-26T20:41:28.788Z,97636.00
2022-12-26T20:43:56.428Z,97637.00
2022-12-26T20:46:28.626Z,97647.00
2022-12-26T20:48:55.671Z,97654.00
2022-12-26T20:51:36.437Z,97662.00
2022-12-26T20:54:05.138Z,97669.00
2022-12-26T20:56:31.892Z,97676.00
2022-12-26T20:58:59.608Z,97676.00
2022-12-26T21:01:27.710Z,97682.00
2022-12-26T21:03:56.527Z,97686.00
2022-12-26T21:06:34.818Z,97683.00
2022-12-26T21:09:02.736Z,97689.00
2022-12-26T21:11:36.284Z,97691.00
2022-12-26T21:14:11.033Z,97700.00
2022-12-26T21:16:51.759Z,97700.00
2022-12-26T21:19:19.927Z,97713.00
2022-12-26T21:21:49.968Z,97707.00
2022-12-26T21:24:24.448Z,97719.00
2022-12-26T21:26:51.633Z,97717.00
2022-12-26T21:29:38.790Z,97717.00
2022-12-26T21:32:06.791Z,97718.00
2022-12-26T21:34:34.063Z,97727.00
2022-12-26T21:37:20.079Z,97735.00
2022-12-26T21:39:47.369Z,97745.00
2022-12-26T21:42:14.119Z,97753.00
2022-12-26T21:44:40.878Z,97753.00
2022-12-26T21:47:08.239Z,97756.00
2022-12-26T21:49:35.925Z,97773.00
2022-12-26T21:52:04.540Z,97778.00
2022-12-26T21:54:49.703Z,97772.00
2022-12-26T21:57:17.555Z,97784.00
2022-12-26T21:59:57.468Z,97789.00
2022-12-26T22:02:48.743Z,97791.00
2022-12-26T22:05:18.253Z,97796.00
2022-12-26T22:07:45.297Z,97792.00
2022-12-26T22:10:30.804Z,97806.00
2022-12-26T22:12:57.720Z,97812.00
2022-12-26T22:15:43.559Z,97813.00
2022-12-26T22:18:10.869Z,97813.00
2022-12-26T22:20:37.875Z,97822.00
2022-12-26T22:23:04.773Z,97826.00
2022-12-26T22:25:31.519Z,97840.00
2022-12-26T22:28:00.052Z,97837.00
2022-12-26T22:30:26.857Z,97837.00
2022-12-26T22:32:53.744Z,97839.00
2022-12-26T22:35:21.501Z,97848.00
2022-12-26T22:37:48.289Z,97849.00
2022-12-26T22:40:15.083Z,97848.00
2022-12-26T22:42:41.847Z,97844.00
2022-12-26T22:45:09.142Z,97846.00
2022-12-26T22:47:35.920Z,97834.00
2022-12-26T22:50:02.638Z,97850.00
2022-12-26T22:52:29.410Z,97845.00
2022-12-26T22:54:56.133Z,97854.00
2022-12-26T22:57:23.622Z,97850.00
2022-12-26T23:02:37.233Z,97862.00
2022-12-26T23:05:05.247Z,97873.00
2022-12-26T23:07:32.865Z,97869.00
2022-12-26T23:10:00.392Z,97869.00
2022-12-26T23:12:46.035Z,97870.00
2022-12-26T23:15:22.891Z,97870.00
2022-12-26T23:18:24.828Z,97878.00
2022-12-26T23:21:11.401Z,97882.00
2022-12-26T23:23:39.270Z,97881.00
2022-12-26T23:26:06.040Z,97892.00
2022-12-26T23:28:51.062Z,97891.00
2022-12-26T23:31:17.827Z,97894.00
2022-12-26T23:33:44.646Z,97895.00
2022-12-26T23:36:11.397Z,97894.00
2022-12-26T23:38:38.138Z,97904.00
2022-12-26T23:41:05.112Z,97908.00
2022-12-26T23:43:33.487Z,97904.00
2022-12-26T23:46:00.767Z,97904.00
2022-12-26T23:48:27.843Z,97923.00
2022-12-26T23:51:06.432Z,97924.00
2022-12-26T23:53:33.691Z,97934.00
2022-12-26T23:56:00.420Z,97928.00
2022-12-26T23:58:27.605Z,97927.00
